sensor_id;sensor_type;location;lat;lon;timestamp;pressure;altitude;pressure_sealevel;temperature;humidity
74075;BME280;62428;51.412;5.432;2023-04-24T00:00:18;99884.56;;;9.24;96.59
74075;BME280;62428;51.412;5.432;2023-04-24T00:02:44;99883.31;;;9.22;97.17
74075;BME280;62428;51.412;5.432;2023-04-24T00:05:16;99881.41;;;9.22;97.37
74075;BME280;62428;51.412;5.432;2023-04-24T00:07:43;99890.84;;;9.20;96.62
74075;BME280;62428;51.412;5.432;2023-04-24T00:10:09;99896.22;;;9.20;96.80
74075;BME280;62428;51.412;5.432;2023-04-24T00:12:35;99896.53;;;9.18;96.54
74075;BME280;62428;51.412;5.432;2023-04-24T00:15:01;99896.53;;;9.18;96.64
74075;BME280;62428;51.412;5.432;2023-04-24T00:17:26;99891.16;;;9.18;96.29
74075;BME280;62428;51.412;5.432;2023-04-24T00:19:51;99892.72;;;9.19;96.08
74075;BME280;62428;51.412;5.432;2023-04-24T00:22:23;99891.16;;;9.18;96.53
74075;BME280;62428;51.412;5.432;2023-04-24T00:24:49;99894.13;;;9.17;96.30
74075;BME280;62428;51.412;5.432;2023-04-24T00:27:14;99894.13;;;9.17;95.92
74075;BME280;62428;51.412;5.432;2023-04-24T00:29:39;99896.81;;;9.17;96.23
74075;BME280;62428;51.412;5.432;2023-04-24T00:32:04;99894.63;;;9.19;96.90
74075;BME280;62428;51.412;5.432;2023-04-24T00:34:30;99903.44;;;9.19;96.34
74075;BME280;62428;51.412;5.432;2023-04-24T00:36:57;99902.97;;;9.17;96.11
74075;BME280;62428;51.412;5.432;2023-04-24T00:39:22;99902.97;;;9.17;96.54
74075;BME280;62428;51.412;5.432;2023-04-24T00:41:48;99902.97;;;9.17;96.55
74075;BME280;62428;51.412;5.432;2023-04-24T00:44:14;99910.22;;;9.17;96.74
74075;BME280;62428;51.412;5.432;2023-04-24T00:46:40;99908.63;;;9.16;96.69
74075;BME280;62428;51.412;5.432;2023-04-24T00:49:06;99902.00;;;9.13;96.40
74075;BME280;62428;51.412;5.432;2023-04-24T00:51:32;99907.34;;;9.13;96.63
74075;BME280;62428;51.412;5.432;2023-04-24T00:53:58;99901.50;;;9.11;95.71
74075;BME280;62428;51.412;5.432;2023-04-24T00:56:23;99904.00;;;9.08;96.26
74075;BME280;62428;51.412;5.432;2023-04-24T00:58:49;99904.31;;;9.06;96.14
74075;BME280;62428;51.412;5.432;2023-04-24T01:01:15;99913.41;;;9.05;96.40
74075;BME280;62428;51.412;5.432;2023-04-24T01:03:40;99897.69;;;9.03;96.00
74075;BME280;62428;51.412;5.432;2023-04-24T01:06:06;99904.91;;;9.03;95.98
74075;BME280;62428;51.412;5.432;2023-04-24T01:08:32;99900.16;;;9.00;96.50
74075;BME280;62428;51.412;5.432;2023-04-24T01:11:01;99900.16;;;9.00;97.08
74075;BME280;62428;51.412;5.432;2023-04-24T01:13:28;99899.66;;;8.98;97.07
74075;BME280;62428;51.412;5.432;2023-04-24T01:15:54;99899.16;;;8.96;97.04
74075;BME280;62428;51.412;5.432;2023-04-24T01:18:22;99897.41;;;8.91;97.20
74075;BME280;62428;51.412;5.432;2023-04-24T01:20:48;99893.63;;;8.92;96.86
74075;BME280;62428;51.412;5.432;2023-04-24T01:23:16;99902.78;;;8.91;97.10
74075;BME280;62428;51.412;5.432;2023-04-24T01:25:42;99893.63;;;8.92;96.54
74075;BME280;62428;51.412;5.432;2023-04-24T01:28:08;99902.78;;;8.91;95.60
74075;BME280;62428;51.412;5.432;2023-04-24T01:30:33;99890.75;;;8.89;96.56
74075;BME280;62428;51.412;5.432;2023-04-24T01:32:58;99900.38;;;8.90;96.24
74075;BME280;62428;51.412;5.432;2023-04-24T01:35:24;99905.75;;;8.90;96.50
74075;BME280;62428;51.412;5.432;2023-04-24T01:37:50;99895.53;;;8.92;96.39
74075;BME280;62428;51.412;5.432;2023-04-24T01:40:15;99902.78;;;8.91;96.16
74075;BME280;62428;51.412;5.432;2023-04-24T01:42:41;99908.13;;;8.91;96.52
74075;BME280;62428;51.412;5.432;2023-04-24T01:45:10;99899.28;;;8.91;95.70
74075;BME280;62428;51.412;5.432;2023-04-24T01:47:36;99900.38;;;8.90;96.13
74075;BME280;62428;51.412;5.432;2023-04-24T01:50:01;99903.84;;;8.90;95.95
74075;BME280;62428;51.412;5.432;2023-04-24T01:52:27;99903.06;;;8.90;96.08
74075;BME280;62428;51.412;5.432;2023-04-24T01:54:53;99899.59;;;8.89;96.03
74075;BME280;62428;51.412;5.432;2023-04-24T01:57:20;99905.25;;;8.88;95.98
74075;BME280;62428;51.412;5.432;2023-04-24T01:59:46;99899.41;;;8.85;95.57
74075;BME280;62428;51.412;5.432;2023-04-24T02:02:11;99906.03;;;8.88;95.55
74075;BME280;62428;51.412;5.432;2023-04-24T02:04:37;99900.97;;;8.87;95.63
74075;BME280;62428;51.412;5.432;2023-04-24T02:07:02;99908.25;;;8.86;95.37
74075;BME280;62428;51.412;5.432;2023-04-24T02:09:27;99905.84;;;8.84;95.56
74075;BME280;62428;51.412;5.432;2023-04-24T02:11:52;99908.84;;;8.83;95.73
74075;BME280;62428;51.412;5.432;2023-04-24T02:14:18;99901.28;;;8.85;95.63
74075;BME280;62428;51.412;5.432;2023-04-24T02:16:43;99903.97;;;8.85;95.10
74075;BME280;62428;51.412;5.432;2023-04-24T02:19:09;99910.91;;;8.86;95.23
74075;BME280;62428;51.412;5.432;2023-04-24T02:21:34;99907.94;;;8.88;95.52
74075;BME280;62428;51.412;5.432;2023-04-24T02:24:00;99910.91;;;8.86;95.15
74075;BME280;62428;51.412;5.432;2023-04-24T02:26:25;99907.47;;;8.85;95.26
74075;BME280;62428;51.412;5.432;2023-04-24T02:28:51;99906.63;;;8.85;95.42
74075;BME280;62428;51.412;5.432;2023-04-24T02:31:16;99906.63;;;8.85;95.06
74075;BME280;62428;51.412;5.432;2023-04-24T02:33:41;99909.31;;;8.85;94.70
74075;BME280;62428;51.412;5.432;2023-04-24T02:36:07;99903.97;;;8.85;94.97
74075;BME280;62428;51.412;5.432;2023-04-24T02:38:32;99903.97;;;8.85;95.66
74075;BME280;62428;51.412;5.432;2023-04-24T02:40:57;99909.03;;;8.87;95.60
74075;BME280;62428;51.412;5.432;2023-04-24T02:43:23;99899.41;;;8.85;94.99
74075;BME280;62428;51.412;5.432;2023-04-24T02:45:48;99897.81;;;8.84;94.77
74075;BME280;62428;51.412;5.432;2023-04-24T02:48:14;99900.97;;;8.87;94.61
74075;BME280;62428;51.412;5.432;2023-04-24T02:50:39;99903.97;;;8.85;94.49
74075;BME280;62428;51.412;5.432;2023-04-24T02:53:05;99895.44;;;8.83;94.46
74075;BME280;62428;51.412;5.432;2023-04-24T02:55:30;99895.44;;;8.83;94.37
74075;BME280;62428;51.412;5.432;2023-04-24T02:57:55;99898.13;;;8.83;95.17
74075;BME280;62428;51.412;5.432;2023-04-24T03:00:21;99901.91;;;8.82;94.41
74075;BME280;62428;51.412;5.432;2023-04-24T03:02:46;99900.81;;;8.83;94.83
74075;BME280;62428;51.412;5.432;2023-04-24T03:05:11;99898.94;;;8.83;94.49
74075;BME280;62428;51.412;5.432;2023-04-24T03:07:37;99897.03;;;8.84;94.97
74075;BME280;62428;51.412;5.432;2023-04-24T03:10:04;99897.81;;;8.84;94.09
74075;BME280;62428;51.412;5.432;2023-04-24T03:12:30;99899.22;;;8.82;94.34
74075;BME280;62428;51.412;5.432;2023-04-24T03:14:56;99894.34;;;8.84;94.38
74075;BME280;62428;51.412;5.432;2023-04-24T03:17:21;99893.88;;;8.82;93.65
74075;BME280;62428;51.412;5.432;2023-04-24T03:19:46;99890.72;;;8.80;94.16
74075;BME280;62428;51.412;5.432;2023-04-24T03:22:12;99892.88;;;8.78;94.07
74075;BME280;62428;51.412;5.432;2023-04-24T03:24:37;99898.22;;;8.78;94.08
74075;BME280;62428;51.412;5.432;2023-04-24T03:27:03;99901.22;;;8.76;94.12
74075;BME280;62428;51.412;5.432;2023-04-24T03:29:28;99895.88;;;8.76;93.86
74075;BME280;62428;51.412;5.432;2023-04-24T03:31:53;99896.19;;;8.75;93.95
74075;BME280;62428;51.412;5.432;2023-04-24T03:34:19;99898.84;;;8.75;94.18
74075;BME280;62428;51.412;5.432;2023-04-24T03:36:44;99904.22;;;8.75;93.90
74075;BME280;62428;51.412;5.432;2023-04-24T03:39:12;99906.06;;;8.74;93.11
74075;BME280;62428;51.412;5.432;2023-04-24T03:41:37;99905.09;;;8.70;93.90
74075;BME280;62428;51.412;5.432;2023-04-24T03:44:03;99908.59;;;8.71;93.43
74075;BME280;62428;51.412;5.432;2023-04-24T03:46:28;99908.06;;;8.69;93.72
74075;BME280;62428;51.412;5.432;2023-04-24T03:48:53;99901.94;;;8.68;93.42
74075;BME280;62428;51.412;5.432;2023-04-24T03:51:19;99900.84;;;8.69;94.00
74075;BME280;62428;51.412;5.432;2023-04-24T03:53:44;99900.38;;;8.67;94.18
74075;BME280;62428;51.412;5.432;2023-04-24T03:56:09;99904.13;;;8.66;94.00
74075;BME280;62428;51.412;5.432;2023-04-24T03:58:35;99896.88;;;8.66;93.45
74075;BME280;62428;51.412;5.432;2023-04-24T04:01:00;99896.88;;;8.66;93.43
74075;BME280;62428;51.412;5.432;2023-04-24T04:03:25;99902.22;;;8.66;93.66
74075;BME280;62428;51.412;5.432;2023-04-24T04:05:51;99900.66;;;8.65;94.42
74075;BME280;62428;51.412;5.432;2023-04-24T04:08:16;99896.88;;;8.66;94.13
74075;BME280;62428;51.412;5.432;2023-04-24T04:10:42;99907.88;;;8.65;93.99
74075;BME280;62428;51.412;5.432;2023-04-24T04:13:07;99907.69;;;8.61;94.55
74075;BME280;62428;51.412;5.432;2023-04-24T04:15:32;99908.00;;;8.60;94.50
74075;BME280;62428;51.412;5.432;2023-04-24T04:17:58;99907.19;;;8.59;94.88
74075;BME280;62428;51.412;5.432;2023-04-24T04:20:23;99905.63;;;8.58;94.82
74075;BME280;62428;51.412;5.432;2023-04-24T04:22:48;99903.84;;;8.54;95.04
74075;BME280;62428;51.412;5.432;2023-04-24T04:25:14;99911.09;;;8.53;95.35
74075;BME280;62428;51.412;5.432;2023-04-24T04:27:39;99904.25;;;8.47;96.16
74075;BME280;62428;51.412;5.432;2023-04-24T04:30:07;99904.38;;;8.42;96.30
74075;BME280;62428;51.412;5.432;2023-04-24T04:32:34;99908.38;;;8.39;96.78
74075;BME280;62428;51.412;5.432;2023-04-24T04:35:00;99909.78;;;8.37;97.39
74075;BME280;62428;51.412;5.432;2023-04-24T04:37:32;99907.41;;;8.35;97.64
74075;BME280;62428;51.412;5.432;2023-04-24T04:40:02;99910.38;;;8.34;97.91
74075;BME280;62428;51.412;5.432;2023-04-24T04:42:37;99907.69;;;8.34;98.25
74075;BME280;62428;51.412;5.432;2023-04-24T04:45:09;99907.50;;;8.30;97.96
74075;BME280;62428;51.412;5.432;2023-04-24T04:47:34;99914.75;;;8.30;98.26
74075;BME280;62428;51.412;5.432;2023-04-24T04:50:00;99909.69;;;8.28;97.86
74075;BME280;62428;51.412;5.432;2023-04-24T04:52:25;99903.84;;;8.26;98.58
74075;BME280;62428;51.412;5.432;2023-04-24T04:54:51;99909.97;;;8.26;97.91
74075;BME280;62428;51.412;5.432;2023-04-24T04:57:17;99916.72;;;8.24;98.55
74075;BME280;62428;51.412;5.432;2023-04-24T04:59:42;99921.78;;;8.25;98.80
74075;BME280;62428;51.412;5.432;2023-04-24T05:02:08;99911.38;;;8.24;98.94
74075;BME280;62428;51.412;5.432;2023-04-24T05:04:33;99922.88;;;8.24;98.57
74075;BME280;62428;51.412;5.432;2023-04-24T05:06:58;99923.16;;;8.23;99.02
74075;BME280;62428;51.412;5.432;2023-04-24T05:09:24;99923.16;;;8.23;98.93
74075;BME280;62428;51.412;5.432;2023-04-24T05:11:52;99916.25;;;8.22;98.77
74075;BME280;62428;51.412;5.432;2023-04-24T05:14:17;99914.66;;;8.21;98.49
74075;BME280;62428;51.412;5.432;2023-04-24T05:16:44;99929.13;;;8.20;98.48
74075;BME280;62428;51.412;5.432;2023-04-24T05:19:09;99921.41;;;8.18;98.52
74075;BME280;62428;51.412;5.432;2023-04-24T05:21:36;99933.19;;;8.17;98.92
74075;BME280;62428;51.412;5.432;2023-04-24T05:24:02;99942.59;;;8.15;98.73
74075;BME280;62428;51.412;5.432;2023-04-24T05:26:27;99947.47;;;8.13;98.60
74075;BME280;62428;51.412;5.432;2023-04-24T05:28:53;99955.66;;;8.02;98.90
74075;BME280;62428;51.412;5.432;2023-04-24T05:31:18;99952.28;;;7.97;99.76
74075;BME280;62428;51.412;5.432;2023-04-24T05:33:43;99959.53;;;7.96;99.53
74075;BME280;62428;51.412;5.432;2023-04-24T05:36:09;99969.41;;;7.96;99.80
74075;BME280;62428;51.412;5.432;2023-04-24T05:38:34;99976.16;;;7.93;99.32
74075;BME280;62428;51.412;5.432;2023-04-24T05:40:59;99971.88;;;7.92;99.40
74075;BME280;62428;51.412;5.432;2023-04-24T05:43:25;99973.06;;;7.86;99.82
74075;BME280;62428;51.412;5.432;2023-04-24T05:45:50;99975.34;;;7.79;100.00
74075;BME280;62428;51.412;5.432;2023-04-24T05:48:15;99977.00;;;7.75;100.00
74075;BME280;62428;51.412;5.432;2023-04-24T05:50:41;99973.84;;;7.73;100.00
74075;BME280;62428;51.412;5.432;2023-04-24T05:53:06;99972.53;;;7.70;100.00
74075;BME280;62428;51.412;5.432;2023-04-24T05:55:32;99977.88;;;7.70;99.75
74075;BME280;62428;51.412;5.432;2023-04-24T05:57:57;99976.09;;;7.65;100.00
74075;BME280;62428;51.412;5.432;2023-04-24T06:00:23;99976.09;;;7.65;100.00
74075;BME280;62428;51.412;5.432;2023-04-24T06:02:49;99976.38;;;7.64;100.00
74075;BME280;62428;51.412;5.432;2023-04-24T06:05:14;99981.22;;;7.62;100.00
74075;BME280;62428;51.412;5.432;2023-04-24T06:07:40;99993.28;;;7.59;100.00
74075;BME280;62428;51.412;5.432;2023-04-24T06:10:05;100001.91;;;7.56;100.00
74075;BME280;62428;51.412;5.432;2023-04-24T06:12:31;99998.03;;;7.48;100.00
74075;BME280;62428;51.412;5.432;2023-04-24T06:14:56;100011.47;;;7.43;100.00
74075;BME280;62428;51.412;5.432;2023-04-24T06:17:22;100017.09;;;7.42;100.00
74075;BME280;62428;51.412;5.432;2023-04-24T06:19:47;100013.91;;;7.40;100.00
74075;BME280;62428;51.412;5.432;2023-04-24T06:22:12;100026.19;;;7.41;100.00
74075;BME280;62428;51.412;5.432;2023-04-24T06:24:39;100033.91;;;7.42;100.00
74075;BME280;62428;51.412;5.432;2023-04-24T06:27:05;100044.81;;;7.46;100.00
74075;BME280;62428;51.412;5.432;2023-04-24T06:29:30;100038.91;;;7.49;100.00
74075;BME280;62428;51.412;5.432;2023-04-24T06:31:56;100054.66;;;7.50;100.00
74075;BME280;62428;51.412;5.432;2023-04-24T06:34:21;100055.44;;;7.51;100.00
74075;BME280;62428;51.412;5.432;2023-04-24T06:36:47;100066.63;;;7.53;100.00
74075;BME280;62428;51.412;5.432;2023-04-24T06:39:12;100069.03;;;7.55;100.00
74075;BME280;62428;51.412;5.432;2023-04-24T06:41:37;100072.97;;;7.57;100.00
74075;BME280;62428;51.412;5.432;2023-04-24T06:44:03;100082.31;;;7.60;100.00
74075;BME280;62428;51.412;5.432;2023-04-24T06:46:28;100088.44;;;7.60;100.00
74075;BME280;62428;51.412;5.432;2023-04-24T06:48:53;100091.13;;;7.60;100.00
74075;BME280;62428;51.412;5.432;2023-04-24T06:51:25;100097.53;;;7.59;100.00
74075;BME280;62428;51.412;5.432;2023-04-24T06:53:51;100112.50;;;7.60;100.00
74075;BME280;62428;51.412;5.432;2023-04-24T06:56:17;100119.16;;;7.63;100.00
74075;BME280;62428;51.412;5.432;2023-04-24T06:58:42;100127.69;;;7.65;100.00
74075;BME280;62428;51.412;5.432;2023-04-24T07:01:07;100142.66;;;7.66;100.00
74075;BME280;62428;51.412;5.432;2023-04-24T07:03:33;100138.09;;;7.66;100.00
74075;BME280;62428;51.412;5.432;2023-04-24T07:05:58;100146.09;;;7.66;100.00
74075;BME280;62428;51.412;5.432;2023-04-24T07:08:23;100153.06;;;7.67;100.00
74075;BME280;62428;51.412;5.432;2023-04-24T07:10:50;100159.19;;;7.68;100.00
74075;BME280;62428;51.412;5.432;2023-04-24T07:13:16;100163.47;;;7.69;100.00
74075;BME280;62428;51.412;5.432;2023-04-24T07:15:42;100169.59;;;7.69;100.00
74075;BME280;62428;51.412;5.432;2023-04-24T07:18:07;100177.63;;;7.69;100.00
74075;BME280;62428;51.412;5.432;2023-04-24T07:20:33;100188.03;;;7.71;100.00
74075;BME280;62428;51.412;5.432;2023-04-24T07:22:59;100190.44;;;7.73;100.00
74075;BME280;62428;51.412;5.432;2023-04-24T07:25:24;100198.94;;;7.75;100.00
74075;BME280;62428;51.412;5.432;2023-04-24T07:27:49;100199.47;;;7.77;100.00
74075;BME280;62428;51.412;5.432;2023-04-24T07:30:15;100211.75;;;7.78;100.00
74075;BME280;62428;51.412;5.432;2023-04-24T07:32:40;100216.78;;;7.79;100.00
74075;BME280;62428;51.412;5.432;2023-04-24T07:35:06;100225.13;;;7.78;100.00
74075;BME280;62428;51.412;5.432;2023-04-24T07:37:31;100229.94;;;7.76;100.00
74075;BME280;62428;51.412;5.432;2023-04-24T07:39:57;100232.63;;;7.76;100.00
74075;BME280;62428;51.412;5.432;2023-04-24T07:42:22;100255.91;;;7.75;100.00
74075;BME280;62428;51.412;5.432;2023-04-24T07:44:47;100254.00;;;7.76;100.00
74075;BME280;62428;51.412;5.432;2023-04-24T07:47:13;100273.53;;;7.76;100.00
74075;BME280;62428;51.412;5.432;2023-04-24T07:49:41;100283.16;;;7.77;100.00
74075;BME280;62428;51.412;5.432;2023-04-24T07:52:07;100293.06;;;7.77;100.00
74075;BME280;62428;51.412;5.432;2023-04-24T07:54:32;100296.78;;;7.76;100.00
74075;BME280;62428;51.412;5.432;2023-04-24T07:56:58;100298.13;;;7.78;100.00
74075;BME280;62428;51.412;5.432;2023-04-24T07:59:23;100306.16;;;7.78;100.00
74075;BME280;62428;51.412;5.432;2023-04-24T08:01:48;100311.50;;;7.78;100.00
74075;BME280;62428;51.412;5.432;2023-04-24T08:04:14;100313.38;;;7.78;100.00
74075;BME280;62428;51.412;5.432;2023-04-24T08:06:39;100313.88;;;7.80;100.00
74075;BME280;62428;51.412;5.432;2023-04-24T08:09:05;100320.81;;;7.81;100.00
74075;BME280;62428;51.412;5.432;2023-04-24T08:11:30;100319.75;;;7.82;100.00
74075;BME280;62428;51.412;5.432;2023-04-24T08:13:55;100325.38;;;7.80;100.00
74075;BME280;62428;51.412;5.432;2023-04-24T08:16:21;100331.78;;;7.79;100.00
74075;BME280;62428;51.412;5.432;2023-04-24T08:18:47;100347.03;;;7.79;100.00
74075;BME280;62428;51.412;5.432;2023-04-24T08:21:12;100347.03;;;7.79;100.00
74075;BME280;62428;51.412;5.432;2023-04-24T08:23:42;100360.13;;;7.80;100.00
74075;BME280;62428;51.412;5.432;2023-04-24T08:26:07;100366.28;;;7.81;100.00
74075;BME280;62428;51.412;5.432;2023-04-24T08:28:32;100364.41;;;7.81;100.00
74075;BME280;62428;51.412;5.432;2023-04-24T08:30:58;100375.13;;;7.81;100.00
74075;BME280;62428;51.412;5.432;2023-04-24T08:33:23;100380.16;;;7.83;100.00
74075;BME280;62428;51.412;5.432;2023-04-24T08:35:49;100374.25;;;7.86;100.00
74075;BME280;62428;51.412;5.432;2023-04-24T08:38:16;100376.38;;;7.89;100.00
74075;BME280;62428;51.412;5.432;2023-04-24T08:40:42;100384.03;;;7.96;100.00
74075;BME280;62428;51.412;5.432;2023-04-24T08:43:08;100383.19;;;8.00;100.00
74075;BME280;62428;51.412;5.432;2023-04-24T08:45:34;100397.06;;;8.02;100.00
74075;BME280;62428;51.412;5.432;2023-04-24T08:48:00;100401.88;;;8.05;100.00
74075;BME280;62428;51.412;5.432;2023-04-24T08:50:25;100405.56;;;8.09;100.00
74075;BME280;62428;51.412;5.432;2023-04-24T08:52:51;100407.91;;;8.16;100.00
74075;BME280;62428;51.412;5.432;2023-04-24T08:55:19;100409.16;;;8.24;100.00
74075;BME280;62428;51.412;5.432;2023-04-24T08:57:48;100419.75;;;8.34;100.00
74075;BME280;62428;51.412;5.432;2023-04-24T09:00:15;100431.19;;;8.40;100.00
74075;BME280;62428;51.412;5.432;2023-04-24T09:02:45;100429.84;;;8.37;99.74
74075;BME280;62428;51.412;5.432;2023-04-24T09:05:12;100439.03;;;8.31;98.11
74075;BME280;62428;51.412;5.432;2023-04-24T09:07:39;100439.38;;;8.24;98.80
74075;BME280;62428;51.412;5.432;2023-04-24T09:10:07;100446.66;;;8.19;98.28
74075;BME280;62428;51.412;5.432;2023-04-24T09:12:34;100452.56;;;8.16;98.03
74075;BME280;62428;51.412;5.432;2023-04-24T09:15:00;100464.38;;;8.15;98.86
74075;BME280;62428;51.412;5.432;2023-04-24T09:17:28;100464.09;;;8.16;99.02
74075;BME280;62428;51.412;5.432;2023-04-24T09:19:55;100462.44;;;8.20;98.93
74075;BME280;62428;51.412;5.432;2023-04-24T09:22:20;100470.94;;;8.27;99.41
74075;BME280;62428;51.412;5.432;2023-04-24T09:24:46;100467.59;;;8.36;99.99
74075;BME280;62428;51.412;5.432;2023-04-24T09:27:12;100474.78;;;8.45;98.62
74075;BME280;62428;51.412;5.432;2023-04-24T09:29:38;100477.31;;;8.56;98.99
74075;BME280;62428;51.412;5.432;2023-04-24T09:32:21;100482.56;;;8.66;98.17
74075;BME280;62428;51.412;5.432;2023-04-24T09:34:47;100483.78;;;8.74;96.44
74075;BME280;62428;51.412;5.432;2023-04-24T09:37:27;100488.34;;;8.73;95.91
74075;BME280;62428;51.412;5.432;2023-04-24T09:40:12;100494.06;;;8.66;96.50
74075;BME280;62428;51.412;5.432;2023-04-24T09:42:38;100493.31;;;8.61;95.44
74075;BME280;62428;51.412;5.432;2023-04-24T09:45:08;100512.13;;;8.56;95.84
74075;BME280;62428;51.412;5.432;2023-04-24T09:47:37;100506.84;;;8.51;95.59
74075;BME280;62428;51.412;5.432;2023-04-24T09:50:14;100513.84;;;8.46;95.88
74075;BME280;62428;51.412;5.432;2023-04-24T09:52:44;100523.19;;;8.49;96.40
74075;BME280;62428;51.412;5.432;2023-04-24T09:55:11;100529.56;;;8.53;95.24
74075;BME280;62428;51.412;5.432;2023-04-24T09:57:47;100525.47;;;8.61;96.11
74075;BME280;62428;51.412;5.432;2023-04-24T10:00:13;100533.66;;;8.70;95.83
74075;BME280;62428;51.412;5.432;2023-04-24T10:02:42;100528.34;;;8.89;95.40
74075;BME280;62428;51.412;5.432;2023-04-24T10:05:11;100538.72;;;9.14;95.43
74075;BME280;62428;51.412;5.432;2023-04-24T10:07:37;100543.38;;;9.28;93.78
74075;BME280;62428;51.412;5.432;2023-04-24T10:10:03;100549.75;;;9.32;92.34
74075;BME280;62428;51.412;5.432;2023-04-24T10:12:29;100546.84;;;9.28;91.06
74075;BME280;62428;51.412;5.432;2023-04-24T10:14:55;100539.75;;;9.18;87.78
74075;BME280;62428;51.412;5.432;2023-04-24T10:17:21;100549.31;;;9.06;87.79
74075;BME280;62428;51.412;5.432;2023-04-24T10:19:48;100547.75;;;8.99;89.06
74075;BME280;62428;51.412;5.432;2023-04-24T10:22:15;100554.22;;;8.98;88.51
74075;BME280;62428;51.412;5.432;2023-04-24T10:24:42;100563.06;;;8.99;88.59
74075;BME280;62428;51.412;5.432;2023-04-24T10:27:09;100558.19;;;9.01;88.72
74075;BME280;62428;51.412;5.432;2023-04-24T10:29:35;100564.88;;;9.03;87.89
74075;BME280;62428;51.412;5.432;2023-04-24T10:32:01;100564.56;;;9.05;87.79
74075;BME280;62428;51.412;5.432;2023-04-24T10:34:26;100563.50;;;9.06;87.03
74075;BME280;62428;51.412;5.432;2023-04-24T10:36:53;100560.59;;;9.02;85.80
74075;BME280;62428;51.412;5.432;2023-04-24T10:39:21;100564.06;;;9.03;86.64
74075;BME280;62428;51.412;5.432;2023-04-24T10:41:48;100571.81;;;9.04;85.57
74075;BME280;62428;51.412;5.432;2023-04-24T10:44:15;100576.38;;;9.04;83.91
74075;BME280;62428;51.412;5.432;2023-04-24T10:46:45;100575.59;;;9.03;83.20
74075;BME280;62428;51.412;5.432;2023-04-24T10:49:11;100593.03;;;9.01;84.00
74075;BME280;62428;51.412;5.432;2023-04-24T10:51:44;100579.56;;;9.06;86.14
74075;BME280;62428;51.412;5.432;2023-04-24T10:54:34;100595.16;;;9.23;84.90
74075;BME280;62428;51.412;5.432;2023-04-24T11:00:18;100602.88;;;9.30;84.20
74075;BME280;62428;51.412;5.432;2023-04-24T11:02:46;100602.66;;;9.26;81.44
74075;BME280;62428;51.412;5.432;2023-04-24T11:05:18;100605.59;;;9.24;82.67
74075;BME280;62428;51.412;5.432;2023-04-24T11:10:44;100619.88;;;9.20;81.90
74075;BME280;62428;51.412;5.432;2023-04-24T11:13:10;100616.38;;;9.19;80.76
74075;BME280;62428;51.412;5.432;2023-04-24T11:15:35;100612.03;;;9.23;81.41
74075;BME280;62428;51.412;5.432;2023-04-24T11:18:00;100615.16;;;9.31;82.49
74075;BME280;62428;51.412;5.432;2023-04-24T11:20:26;100619.91;;;9.39;80.80
74075;BME280;62428;51.412;5.432;2023-04-24T11:22:53;100626.28;;;9.43;78.32
74075;BME280;62428;51.412;5.432;2023-04-24T11:25:21;100628.91;;;9.48;80.32
74075;BME280;62428;51.412;5.432;2023-04-24T11:27:47;100625.03;;;9.54;78.60
74075;BME280;62428;51.412;5.432;2023-04-24T11:30:19;100638.16;;;9.56;77.93
74075;BME280;62428;51.412;5.432;2023-04-24T11:32:48;100644.63;;;9.55;77.65
74075;BME280;62428;51.412;5.432;2023-04-24T11:35:19;100637.88;;;9.57;78.39
74075;BME280;62428;51.412;5.432;2023-04-24T11:37:47;100645.06;;;9.62;77.30
74075;BME280;62428;51.412;5.432;2023-04-24T11:40:17;100643.41;;;9.66;77.98
74075;BME280;62428;51.412;5.432;2023-04-24T11:42:47;100646.09;;;9.66;75.43
74075;BME280;62428;51.412;5.432;2023-04-24T11:45:33;100663.75;;;9.67;78.53
74075;BME280;62428;51.412;5.432;2023-04-24T11:47:58;100656.03;;;9.66;76.95
74075;BME280;62428;51.412;5.432;2023-04-24T11:50:25;100665.94;;;9.65;75.40
74075;BME280;62428;51.412;5.432;2023-04-24T11:52:52;100660.56;;;9.65;75.58
74075;BME280;62428;51.412;5.432;2023-04-24T11:57:45;100674.72;;;9.71;74.78
74075;BME280;62428;51.412;5.432;2023-04-24T12:02:42;100682.41;;;9.77;77.23
74075;BME280;62428;51.412;5.432;2023-04-24T12:05:07;100682.28;;;9.88;75.50
74075;BME280;62428;51.412;5.432;2023-04-24T12:07:41;100676.75;;;9.98;77.26
74075;BME280;62428;51.412;5.432;2023-04-24T12:10:08;100680.59;;;10.11;76.52
74075;BME280;62428;51.412;5.432;2023-04-24T12:12:34;100686.31;;;10.23;76.54
74075;BME280;62428;51.412;5.432;2023-04-24T12:15:01;100682.41;;;10.34;76.25
74075;BME280;62428;51.412;5.432;2023-04-24T12:17:29;100691.66;;;10.42;73.84
74075;BME280;62428;51.412;5.432;2023-04-24T12:20:00;100677.38;;;10.47;71.72
74075;BME280;62428;51.412;5.432;2023-04-24T12:22:26;100687.69;;;10.39;70.37
74075;BME280;62428;51.412;5.432;2023-04-24T12:24:59;100702.00;;;10.35;71.58
74075;BME280;62428;51.412;5.432;2023-04-24T12:27:29;100698.50;;;10.34;72.56
74075;BME280;62428;51.412;5.432;2023-04-24T12:29:59;100698.72;;;10.38;72.91
74075;BME280;62428;51.412;5.432;2023-04-24T12:32:24;100692.56;;;10.37;69.90
74075;BME280;62428;51.412;5.432;2023-04-24T12:34:51;100715.72;;;10.33;71.44
74075;BME280;62428;51.412;5.432;2023-04-24T12:37:17;100717.34;;;10.29;72.45
74075;BME280;62428;51.412;5.432;2023-04-24T12:40:06;100713.38;;;10.27;75.12
74075;BME280;62428;51.412;5.432;2023-04-24T12:42:32;100722.50;;;10.26;71.57
74075;BME280;62428;51.412;5.432;2023-04-24T12:45:06;100724.91;;;10.27;72.30
74075;BME280;62428;51.412;5.432;2023-04-24T12:47:32;100727.88;;;10.26;70.49
74075;BME280;62428;51.412;5.432;2023-04-24T12:49:59;100728.69;;;10.26;71.53
74075;BME280;62428;51.412;5.432;2023-04-24T12:52:26;100729.25;;;10.23;69.23
74075;BME280;62428;51.412;5.432;2023-04-24T12:54:59;100727.66;;;10.22;71.06
74075;BME280;62428;51.412;5.432;2023-04-24T12:57:27;100730.66;;;10.20;71.32
74075;BME280;62428;51.412;5.432;2023-04-24T12:59:57;100725.28;;;10.20;71.68
74075;BME280;62428;51.412;5.432;2023-04-24T13:02:23;100724.47;;;10.20;69.95
74075;BME280;62428;51.412;5.432;2023-04-24T13:04:49;100723.69;;;10.19;69.78
74075;BME280;62428;51.412;5.432;2023-04-24T13:07:16;100732.75;;;10.24;70.18
74075;BME280;62428;51.412;5.432;2023-04-24T13:09:44;100738.81;;;10.29;70.63